Time;durP1;ratioP1;P1;durP2;ratioP2;P2;SDS_P1;SDS_P2;PMS_P1;PMS_P2;Temp;Humidity;BMP_temperature;BMP_pressure;BME280_temperature;BME280_humidity;BME280_pressure;Samples;Min_cycle;Max_cycle;Signal;HPM_P1;HPM_P2
2022/01/25 00:08:23;;;;;;;6.97;6.28;;;21.00;42.60;;;;;;5013142;28;43464;-66
2022/01/25 00:10:15;;;;;;;6.72;6.10;;;21.00;42.70;;;;;;4982540;28;44096;-66
2022/01/25 00:26:35;;;;;;;6.38;5.85;;;20.90;42.80;;;;;;5004473;28;43511;-66
2022/01/25 00:29:11;;;;;;;7.35;6.65;;;20.90;42.80;;;;;;4985630;28;44004;-65
2022/01/25 00:31:41;;;;;;;7.47;6.78;;;20.90;42.80;;;;;;5017534;28;43551;-66
2022/01/25 00:34:09;;;;;;;7.78;7.00;;;20.80;42.80;;;;;;4985368;28;43450;-66
2022/01/25 00:36:36;;;;;;;7.32;6.63;;;20.80;42.80;;;;;;5003006;28;43488;-66
2022/01/25 00:39:04;;;;;;;7.57;6.88;;;20.80;42.80;;;;;;5002907;28;43626;-66
2022/01/25 00:41:32;;;;;;;7.28;6.68;;;20.80;42.80;;;;;;5004516;28;43604;-66
2022/01/25 00:44:01;;;;;;;7.43;6.72;;;20.80;42.70;;;;;;5004946;28;43446;-66
2022/01/25 00:46:29;;;;;;;7.22;6.53;;;20.80;42.70;;;;;;5023474;28;43574;-66
2022/01/25 00:49:02;;;;;;;6.97;6.38;;;20.80;42.80;;;;;;5006098;28;43910;-66
2022/01/25 00:54:28;;;;;;;6.90;6.30;;;20.80;42.80;;;;;;4990109;28;43466;-66
2022/01/25 00:56:56;;;;;;;7.85;7.05;;;20.80;42.80;;;;;;5002081;28;43635;-66
2022/01/25 00:59:30;;;;;;;6.85;6.25;;;20.70;42.80;;;;;;5004869;28;44658;-65
2022/01/25 01:02:05;;;;;;;7.43;6.72;;;20.70;42.80;;;;;;5010881;28;45982;-66
2022/01/25 01:04:33;;;;;;;6.82;6.22;;;20.70;42.80;;;;;;5006143;28;43448;-66
2022/01/25 01:07:03;;;;;;;7.57;6.88;;;20.70;42.80;;;;;;5006627;28;43563;-66
2022/01/25 01:09:33;;;;;;;7.68;7.00;;;20.70;42.80;;;;;;5001836;28;44752;-65
2022/01/25 01:12:06;;;;;;;7.63;6.78;;;20.70;42.80;;;;;;5021230;28;44187;-66
2022/01/25 01:17:50;;;;;;;7.15;6.47;;;20.70;42.80;;;;;;5019184;28;43565;-66
2022/01/25 01:44:53;;;;;;;7.72;7.03;;;20.50;42.80;;;;;;5020459;28;43565;-66
2022/01/25 01:47:34;;;;;;;7.30;6.70;;;20.50;42.80;;;;;;5019494;28;43393;-66
2022/01/25 01:50:09;;;;;;;7.68;6.97;;;20.50;42.80;;;;;;5016101;28;43549;-66
2022/01/25 01:52:37;;;;;;;7.95;7.15;;;20.50;42.90;;;;;;5019473;28;43564;-66
2022/01/25 01:55:06;;;;;;;7.38;6.65;;;20.50;42.80;;;;;;5020726;28;43724;-66
2022/01/25 01:57:35;;;;;;;7.53;6.85;;;20.50;42.90;;;;;;5020055;28;43492;-66
2022/01/25 02:00:04;;;;;;;8.25;7.43;;;20.50;42.80;;;;;;5000426;28;43523;-66
2022/01/25 02:02:38;;;;;;;7.97;7.18;;;20.50;42.80;;;;;;5019906;28;45545;-66
2022/01/25 02:05:06;;;;;;;7.68;7.03;;;20.50;42.80;;;;;;5018693;28;44918;-66
2022/01/25 02:07:34;;;;;;;7.70;7.00;;;20.50;42.80;;;;;;5022385;28;43484;-66
2022/01/25 02:10:03;;;;;;;8.07;7.38;;;20.50;42.80;;;;;;5017499;28;43584;-66
2022/01/25 02:12:31;;;;;;;7.82;7.13;;;20.50;42.80;;;;;;5006219;28;43928;-66
2022/01/25 02:15:00;;;;;;;7.65;6.95;;;20.40;42.70;;;;;;5004583;28;44290;-66
2022/01/25 02:23:21;;;;;;;8.00;7.30;;;20.40;42.80;;;;;;5002509;28;44597;-66
2022/01/25 02:25:53;;;;;;;7.63;7.00;;;20.40;42.80;;;;;;5022280;28;43567;-66
2022/01/25 02:28:21;;;;;;;;;;;20.40;42.90;;;;;;5004096;28;43473;-66
2022/01/25 02:30:49;;;;;;;7.22;6.53;;;20.40;42.90;;;;;;5001075;28;43488;-66
2022/01/25 02:33:17;;;;;;;7.70;7.00;;;20.30;42.90;;;;;;5003252;28;44036;-66
2022/01/25 02:35:44;;;;;;;7.65;6.95;;;20.30;42.90;;;;;;5004459;28;43737;-66
2022/01/25 02:38:14;;;;;;;7.65;6.95;;;20.30;42.90;;;;;;5002166;28;43413;-66
2022/01/25 02:40:41;;;;;;;7.70;7.00;;;20.30;42.90;;;;;;5004921;28;43548;-65
2022/01/25 02:43:09;;;;;;;7.72;7.03;;;20.30;42.90;;;;;;5018633;28;43769;-66
2022/01/25 02:45:37;;;;;;;7.90;6.90;;;20.30;43.00;;;;;;5004009;28;45004;-66
2022/01/25 02:50:50;;;;;;;8.43;7.63;;;20.20;42.80;;;;;;5003365;28;43477;-66
2022/01/25 02:53:18;;;;;;;8.27;7.47;;;20.20;42.90;;;;;;5001261;28;44910;-66
2022/01/25 02:55:45;;;;;;;7.70;7.00;;;20.20;42.90;;;;;;5004638;28;43499;-66
2022/01/25 02:58:13;;;;;;;7.38;6.78;;;20.20;42.90;;;;;;5003808;28;43488;-66
2022/01/25 03:00:40;;;;;;;8.15;7.38;;;20.20;42.90;;;;;;5003695;28;43496;-66
2022/01/25 03:03:08;;;;;;;7.45;6.85;;;20.20;43.60;;;;;;5005286;28;44466;-66
2022/01/25 03:05:36;;;;;;;7.82;7.13;;;20.20;43.00;;;;;;5002701;28;43702;-66
2022/01/25 03:08:03;;;;;;;7.57;6.88;;;20.20;43.00;;;;;;5003537;28;43511;-66
2022/01/25 03:10:40;;;;;;;8.52;7.72;;;20.20;43.00;;;;;;5003298;28;43611;-66
2022/01/25 03:13:13;;;;;;;7.78;7.07;;;20.20;43.00;;;;;;5000669;28;43931;-66
2022/01/25 03:23:51;;;;;;;7.53;6.85;;;20.10;43.10;;;;;;5002615;28;44187;-66
2022/01/25 03:26:19;;;;;;;7.70;6.97;;;20.10;43.10;;;;;;5017114;28;43453;-66
2022/01/25 03:28:47;;;;;;;8.07;7.28;;;20.10;43.10;;;;;;5003647;28;43552;-66
2022/01/25 03:31:15;;;;;;;7.57;6.88;;;20.10;43.10;;;;;;5000852;28;43639;-66
2022/01/25 03:33:43;;;;;;;8.15;7.45;;;20.10;43.10;;;;;;5002707;28;45332;-66
2022/01/25 03:36:11;;;;;;;7.28;6.57;;;20.10;43.10;;;;;;5000361;28;43503;-66
2022/01/25 03:38:40;;;;;;;7.30;6.70;;;20.10;43.10;;;;;;5004087;28;43413;-66
2022/01/25 03:41:11;;;;;;;7.75;7.05;;;20.00;43.10;;;;;;5003389;28;43516;-66
2022/01/25 03:43:39;;;;;;;7.72;7.03;;;20.00;43.10;;;;;;4999702;28;43931;-66
2022/01/25 03:51:23;;;;;;;6.93;6.32;;;20.00;43.20;;;;;;5003805;28;43525;-66
2022/01/25 03:53:52;;;;;;;7.80;7.10;;;20.00;43.20;;;;;;5020011;28;44027;-66
2022/01/25 03:56:22;;;;;;;7.45;6.75;;;20.00;43.20;;;;;;5000303;28;43513;-66
2022/01/25 03:58:50;;;;;;;8.07;7.32;;;20.00;43.20;;;;;;5001401;28;43990;-66
2022/01/25 04:01:18;;;;;;;7.30;6.70;;;19.90;43.10;;;;;;5019521;28;43526;-66
2022/01/25 04:03:57;;;;;;;7.38;6.68;;;20.00;43.20;;;;;;5002457;28;44510;-66
2022/01/25 04:06:29;;;;;;;7.38;6.75;;;19.90;43.20;;;;;;5003383;28;44976;-66
2022/01/25 04:08:59;;;;;;;7.55;6.88;;;19.90;43.20;;;;;;5002667;28;44096;-66
2022/01/25 04:11:27;;;;;;;6.95;6.35;;;19.90;43.20;;;;;;5003012;28;43550;-66
2022/01/25 04:13:57;;;;;;;7.45;6.85;;;19.90;43.20;;;;;;5006683;28;45618;-66
2022/01/25 04:16:33;;;;;;;7.75;7.05;;;19.90;43.20;;;;;;5023561;28;43459;-66
2022/01/25 04:19:07;;;;;;;7.22;6.60;;;19.90;43.20;;;;;;5004371;28;43572;-66
2022/01/25 04:26:55;;;;;;;7.63;6.93;;;19.90;43.20;;;;;;5004211;28;44423;-66
2022/01/25 04:29:23;;;;;;;7.47;6.78;;;19.90;43.20;;;;;;5003981;28;43476;-66
2022/01/25 04:31:51;;;;;;;7.50;6.82;;;19.90;43.30;;;;;;5004967;28;43573;-66
2022/01/25 04:53:29;;;;;;;7.45;6.80;;;19.80;43.40;;;;;;5005148;28;43465;-66
2022/01/25 04:56:14;;;;;;;7.53;6.82;;;19.80;43.40;;;;;;5005360;28;43927;-66
2022/01/25 04:59:09;;;;;;;7.70;6.97;;;19.70;43.30;;;;;;5005273;28;43485;-65
2022/01/25 05:01:32;;;;;;;7.65;6.95;;;19.70;43.30;;;;;;5002180;28;43568;-66
2022/01/25 05:04:08;;;;;;;7.63;6.93;;;19.70;43.30;;;;;;5002699;28;43681;-66
2022/01/25 05:06:36;;;;;;;7.72;7.03;;;19.70;43.30;;;;;;5005422;28;45817;-66
2022/01/25 05:09:08;;;;;;;7.80;7.10;;;19.70;43.30;;;;;;5004260;28;43477;-66
2022/01/25 05:11:39;;;;;;;7.35;6.65;;;19.70;43.30;;;;;;5000552;28;43561;-66
2022/01/25 05:16:38;;;;;;;7.57;6.93;;;19.70;43.40;;;;;;5002386;28;43910;-66
2022/01/25 05:24:39;;;;;;;7.57;6.88;;;19.60;43.40;;;;;;5002029;28;43725;-66
2022/01/25 05:27:09;;;;;;;7.60;6.90;;;19.60;43.40;;;;;;5001743;28;44006;-66
2022/01/25 05:29:37;;;;;;;7.40;6.75;;;19.60;43.40;;;;;;5000947;28;44878;-65
2022/01/25 05:32:06;;;;;;;7.03;6.43;;;19.60;43.40;;;;;;5003492;28;43544;-66
2022/01/25 05:34:34;;;;;;;7.35;6.65;;;19.60;43.40;;;;;;5000799;28;43500;-66
2022/01/25 05:37:03;;;;;;;6.95;6.35;;;19.60;43.40;;;;;;5002196;28;45770;-66
2022/01/25 05:39:33;;;;;;;7.25;6.55;;;19.60;43.50;;;;;;5003383;28;43936;-66
2022/01/25 05:44:58;;;;;;;7.05;6.45;;;19.60;43.40;;;;;;5000769;28;44097;-66
2022/01/25 05:47:32;;;;;;;7.50;6.80;;;19.60;43.40;;;;;;5000294;28;44084;-66
2022/01/25 05:50:00;;;;;;;7.03;6.43;;;19.60;43.40;;;;;;5003005;28;43620;-66
2022/01/25 05:52:27;;;;;;;6.97;6.38;;;19.50;43.40;;;;;;5000016;28;43536;-66
2022/01/25 05:54:56;;;;;;;7.20;6.57;;;19.60;43.40;;;;;;5001796;28;44157;-66
2022/01/25 05:57:24;;;;;;;7.13;6.50;;;19.50;43.40;;;;;;4998346;28;43975;-66
2022/01/25 05:59:53;;;;;;;7.43;6.72;;;19.50;43.40;;;;;;5001880;28;43472;-65
2022/01/25 06:02:22;;;;;;;6.85;6.25;;;19.50;43.40;;;;;;5001775;28;43458;-66
2022/01/25 06:04:52;;;;;;;7.43;6.80;;;19.50;43.40;;;;;;5003215;28;44084;-66
2022/01/25 06:07:20;;;;;;;7.20;6.60;;;19.50;43.40;;;;;;5000713;28;45088;-66
2022/01/25 06:09:49;;;;;;;6.50;5.95;;;19.50;43.50;;;;;;4999173;28;43592;-66
2022/01/25 06:12:16;;;;;;;7.07;6.38;;;19.50;43.40;;;;;;5004656;28;43458;-66
2022/01/25 06:14:44;;;;;;;7.00;6.40;;;19.50;43.40;;;;;;4997924;28;43476;-66
2022/01/25 06:17:11;;;;;;;6.72;6.13;;;19.50;43.50;;;;;;5019178;28;43581;-66
2022/01/25 06:19:39;;;;;;;7.07;6.38;;;19.50;43.40;;;;;;5015709;28;43514;-65
2022/01/25 06:22:06;;;;;;;7.03;6.35;;;19.50;43.50;;;;;;5019458;28;43471;-66
2022/01/25 06:24:34;;;;;;;7.38;6.68;;;19.50;43.50;;;;;;5003492;28;43640;-66
2022/01/25 06:27:02;;;;;;;7.13;6.53;;;19.50;43.50;;;;;;5000331;28;43925;-66
2022/01/25 06:29:29;;;;;;;7.90;7.20;;;19.50;43.50;;;;;;4999371;28;43587;-66
2022/01/25 06:31:57;;;;;;;7.90;7.20;;;19.40;43.50;;;;;;5000098;28;43430;-66
2022/01/25 06:34:24;;;;;;;7.72;6.90;;;19.40;43.40;;;;;;4998762;28;43552;-66
2022/01/25 06:36:51;;;;;;;6.93;6.32;;;19.40;43.50;;;;;;4995049;28;44991;-66
2022/01/25 06:39:19;;;;;;;7.78;7.05;;;19.40;43.50;;;;;;5000412;28;43582;-66
2022/01/25 06:41:47;;;;;;;7.45;6.75;;;19.40;43.50;;;;;;5001273;28;43493;-66
2022/01/25 06:44:14;;;;;;;7.38;6.68;;;19.40;43.50;;;;;;4984284;28;43595;-66
2022/01/25 06:46:42;;;;;;;7.00;6.40;;;19.40;43.50;;;;;;4974889;28;45917;-66
2022/01/25 06:49:10;;;;;;;6.55;6.00;;;19.40;43.50;;;;;;5003023;28;45308;-65
2022/01/25 06:51:37;;;;;;;7.07;6.47;;;19.40;43.50;;;;;;5016057;28;43515;-66
2022/01/25 06:54:05;;;;;;;7.45;6.75;;;19.30;43.50;;;;;;4996480;28;43493;-66
2022/01/25 06:56:32;;;;;;;7.75;7.05;;;19.30;43.50;;;;;;4993512;28;43926;-66
2022/01/25 06:58:59;;;;;;;7.25;6.35;;;19.30;43.50;;;;;;5000512;28;43681;-66
2022/01/25 07:01:27;;;;;;;7.30;6.60;;;19.30;43.50;;;;;;5009039;28;43550;-66
2022/01/25 07:03:54;;;;;;;7.28;6.68;;;19.30;43.50;;;;;;4996467;28;43690;-66
2022/01/25 07:06:22;;;;;;;7.20;6.57;;;19.30;43.50;;;;;;4999814;28;44195;-66
2022/01/25 07:08:49;;;;;;;7.93;7.15;;;19.30;43.50;;;;;;5001535;28;44895;-66
2022/01/25 07:11:17;;;;;;;7.53;6.82;;;19.30;43.50;;;;;;5009064;28;43447;-65
2022/01/25 07:13:46;;;;;;;7.57;6.88;;;19.30;43.90;;;;;;5017072;28;43646;-65
2022/01/25 07:16:16;;;;;;;6.80;6.18;;;19.30;43.60;;;;;;5015474;28;43641;-66
2022/01/25 07:18:44;;;;;;;7.00;6.40;;;19.30;43.70;;;;;;5016221;28;43492;-66
2022/01/25 07:21:12;;;;;;;7.50;6.72;;;19.30;43.60;;;;;;5014109;28;43571;-67
2022/01/25 07:23:39;;;;;;;7.13;6.53;;;19.30;43.70;;;;;;4998787;28;43514;-66
2022/01/25 07:26:07;;;;;;;6.90;6.30;;;19.30;43.70;;;;;;5018555;28;44674;-66
2022/01/25 07:28:36;;;;;;;7.35;6.65;;;19.30;43.70;;;;;;5014044;28;44728;-66
2022/01/25 07:31:04;;;;;;;6.72;6.13;;;19.30;43.70;;;;;;5015524;28;43454;-66
2022/01/25 07:33:31;;;;;;;6.60;6.00;;;19.30;43.70;;;;;;5013903;28;43557;-66
2022/01/25 07:36:08;;;;;;;7.50;6.80;;;19.30;43.60;;;;;;5017242;28;43559;-66
2022/01/25 07:38:39;;;;;;;7.05;6.35;;;19.30;43.70;;;;;;5015839;28;43575;-66
2022/01/25 07:41:13;;;;;;;7.05;6.45;;;19.20;43.70;;;;;;5015996;28;44205;-66
2022/01/25 07:43:43;;;;;;;8.00;7.20;;;19.20;43.60;;;;;;5015487;28;43599;-66
2022/01/25 07:46:21;;;;;;;7.63;6.82;;;19.20;43.60;;;;;;5014214;28;44173;-66
2022/01/25 07:48:59;;;;;;;7.80;7.05;;;19.20;43.70;;;;;;5014117;28;44927;-67
2022/01/25 07:51:35;;;;;;;7.25;6.55;;;19.20;43.70;;;;;;5010617;28;43534;-67
2022/01/25 07:54:03;;;;;;;7.68;6.93;;;19.20;43.80;;;;;;5015912;28;43620;-66
2022/01/25 07:56:30;;;;;;;6.60;6.00;;;19.20;43.80;;;;;;5010147;28;44673;-67
2022/01/25 07:58:58;;;;;;;6.93;6.28;;;19.20;44.40;;;;;;5015132;28;43453;-66
2022/01/25 08:01:26;;;;;;;7.43;6.65;;;19.20;43.70;;;;;;5014204;28;44108;-66
2022/01/25 08:03:54;;;;;;;7.55;6.78;;;19.20;43.70;;;;;;4996718;28;43903;-67
2022/01/25 08:06:24;;;;;;;7.70;6.95;;;19.20;43.60;;;;;;5010096;28;46194;-66
2022/01/25 08:09:06;;;;;;;;;;;19.20;43.60;;;;;;4994942;28;43558;-67
2022/01/25 08:11:37;;;;;;;6.88;6.28;;;19.30;43.70;;;;;;5013593;28;43562;-67
2022/01/25 08:14:14;;;;;;;7.35;6.68;;;19.20;43.70;;;;;;5000261;28;43565;-67
2022/01/25 08:16:48;;;;;;;7.10;6.50;;;19.30;43.70;;;;;;5013927;28;44839;-66
2022/01/25 08:19:24;;;;;;;7.60;6.85;;;19.30;43.70;;;;;;5013051;28;43547;-66
2022/01/25 08:21:52;;;;;;;8.60;6.53;;;19.30;43.80;;;;;;5032379;28;43567;-66
2022/01/25 08:24:22;;;;;;;7.78;6.93;;;19.30;43.80;;;;;;5014406;28;43694;-67
2022/01/25 08:27:04;;;;;;;7.25;6.55;;;19.30;43.80;;;;;;4991621;28;45578;-66
2022/01/25 08:29:39;;;;;;;7.68;6.97;;;19.30;43.60;;;;;;5012277;28;43574;-66
2022/01/25 08:32:24;;;;;;;7.07;6.47;;;19.30;43.90;;;;;;5015195;28;43481;-66
2022/01/25 08:34:55;;;;;;;7.43;6.68;;;19.30;43.60;;;;;;5015776;28;43764;-66
2022/01/25 08:37:45;;;;;;;7.87;7.13;;;19.30;43.60;;;;;;4955922;28;44866;-66
2022/01/25 08:40:19;;;;;;;8.02;7.32;;;19.30;43.60;;;;;;4958873;28;44696;-66
2022/01/25 08:42:51;;;;;;;7.60;6.78;;;19.40;43.60;;;;;;4956364;28;44136;-66
2022/01/25 08:45:21;;;;;;;7.72;6.97;;;19.40;43.60;;;;;;4956804;28;43671;-66
2022/01/25 08:47:48;;;;;;;7.20;6.50;;;19.40;43.60;;;;;;4959040;28;46208;-66
2022/01/25 08:50:27;;;;;;;6.93;6.32;;;19.40;43.60;;;;;;4972480;28;43687;-65
2022/01/25 08:53:01;;;;;;;7.45;6.75;;;19.40;43.50;;;;;;4965149;28;43414;-66
2022/01/25 08:55:31;;;;;;;7.35;6.72;;;19.40;43.90;;;;;;4964724;28;43549;-66
2022/01/25 08:57:59;;;;;;;7.18;6.47;;;19.40;43.50;;;;;;4958157;28;43759;-66
2022/01/25 09:00:30;;;;;;;6.95;6.35;;;19.50;43.50;;;;;;4962102;28;43547;-66
2022/01/25 09:02:59;;;;;;;7.38;6.68;;;19.40;43.50;;;;;;4945344;28;43951;-66
2022/01/25 09:05:27;;;;;;;7.60;6.90;;;19.40;43.50;;;;;;4977870;28;43774;-65
2022/01/25 09:07:57;;;;;;;7.40;6.70;;;19.50;43.60;;;;;;4961416;28;44201;-65
2022/01/25 09:10:26;;;;;;;6.88;6.15;;;19.50;43.60;;;;;;4963222;28;43715;-65
2022/01/25 09:12:54;;;;;;;7.07;6.47;;;19.50;43.60;;;;;;4962621;28;44200;-65
2022/01/25 09:15:23;;;;;;;7.43;6.72;;;19.50;43.60;;;;;;5015839;28;43458;-66
2022/01/25 09:17:51;;;;;;;7.63;6.35;;;19.50;43.70;;;;;;5016483;28;46225;-65
2022/01/25 09:20:19;;;;;;;6.88;6.28;;;19.50;43.60;;;;;;5017205;28;44006;-65
2022/01/25 09:22:46;;;;;;;7.43;6.72;;;19.60;43.60;;;;;;5019933;28;43541;-66
2022/01/25 09:25:29;;;;;;;7.00;6.30;;;19.60;43.60;;;;;;5019798;28;43585;-66
2022/01/25 09:27:58;;;;;;;6.93;6.30;;;19.60;43.60;;;;;;5018023;28;44625;-65
2022/01/25 09:30:25;;;;;;;7.00;6.40;;;19.60;43.60;;;;;;5002585;28;43529;-65
2022/01/25 09:32:53;;;;;;;6.57;5.97;;;19.60;43.60;;;;;;5019188;28;43613;-65
2022/01/25 09:35:21;;;;;;;6.22;5.72;;;19.70;43.70;;;;;;5015566;28;43544;-65
2022/01/25 09:37:49;;;;;;;6.57;5.97;;;19.70;43.60;;;;;;5018341;28;46439;-66
2022/01/25 09:40:16;;;;;;;6.75;6.15;;;19.70;43.70;;;;;;5002672;28;43434;-65
2022/01/25 09:42:44;;;;;;;6.35;5.75;;;19.70;43.60;;;;;;5018253;28;43429;-65
2022/01/25 09:45:16;;;;;;;7.47;6.70;;;19.70;43.50;;;;;;4998983;28;43547;-67
2022/01/25 09:47:45;;;;;;;7.28;6.57;;;19.70;43.60;;;;;;5017623;28;45376;-65
2022/01/25 09:50:14;;;;;;;7.03;6.32;;;19.80;43.60;;;;;;5017409;28;44524;-65
2022/01/25 09:52:42;;;;;;;7.07;6.35;;;19.80;43.50;;;;;;5016233;28;43491;-65
2022/01/25 09:55:16;;;;;;;6.95;6.25;;;19.80;43.50;;;;;;5017320;28;44084;-65
2022/01/25 09:57:44;;;;;;;6.53;5.93;;;19.80;43.50;;;;;;5017546;28;43947;-65
2022/01/25 10:00:15;;;;;;;6.72;6.10;;;19.80;43.60;;;;;;5014180;28;43636;-64
2022/01/25 10:02:56;;;;;;;6.97;6.38;;;19.90;43.50;;;;;;5018554;28;43400;-67
2022/01/25 10:05:32;;;;;;;7.60;6.90;;;19.80;43.40;;;;;;5014599;28;44089;-67
2022/01/25 10:08:09;;;;;;;7.85;7.15;;;19.90;43.40;;;;;;5015358;28;45666;-66
2022/01/25 10:10:43;;;;;;;7.90;7.10;;;19.90;43.40;;;;;;5017221;28;43447;-66
2022/01/25 10:13:16;;;;;;;7.80;7.00;;;19.90;43.50;;;;;;5017870;28;43588;-66
2022/01/25 10:15:48;;;;;;;7.50;6.80;;;19.90;43.50;;;;;;5033528;28;43465;-66
2022/01/25 10:18:21;;;;;;;7.13;6.43;;;19.90;43.50;;;;;;5017020;28;45958;-67
2022/01/25 10:20:51;;;;;;;8.52;7.72;;;20.00;43.50;;;;;;5013260;28;43587;-68
2022/01/25 10:23:30;;;;;;;8.25;6.90;;;20.00;43.50;;;;;;5013751;28;43435;-66
2022/01/25 10:26:02;;;;;;;6.80;6.20;;;20.00;43.50;;;;;;5015259;28;43626;-66
2022/01/25 10:28:31;;;;;;;7.95;7.20;;;20.00;43.50;;;;;;5018257;28;43922;-67
2022/01/25 10:31:04;;;;;;;7.28;6.68;;;20.00;43.40;;;;;;5016816;28;43560;-66
2022/01/25 10:33:40;;;;;;;7.88;7.18;;;20.10;43.40;;;;;;5014890;28;43609;-67
2022/01/25 10:36:27;;;;;;;7.20;6.60;;;20.10;43.30;;;;;;5017941;28;43635;-66
2022/01/25 10:38:55;;;;;;;7.50;6.70;;;20.10;43.40;;;;;;5001519;28;46158;-67
2022/01/25 10:41:26;;;;;;;9.23;6.97;;;20.10;43.50;;;;;;5012575;28;43488;-66
2022/01/25 10:43:56;;;;;;;8.90;7.13;;;20.10;43.40;;;;;;5017433;28;43554;-67
2022/01/25 10:46:30;;;;;;;7.53;6.70;;;20.10;43.40;;;;;;5021123;28;43464;-67
2022/01/25 10:49:01;;;;;;;8.25;7.40;;;20.20;43.40;;;;;;5016933;28;46561;-67
2022/01/25 10:51:45;;;;;;;7.57;6.88;;;20.10;43.30;;;;;;5017357;28;44123;-67
2022/01/25 10:54:15;;;;;;;8.32;7.28;;;20.20;43.30;;;;;;5021169;28;43550;-68
2022/01/25 10:56:57;;;;;;;9.10;7.43;;;20.20;43.20;;;;;;5011752;28;43480;-67
2022/01/25 10:59:24;;;;;;;7.38;6.68;;;20.20;43.20;;;;;;5015560;28;45718;-67
2022/01/25 11:01:53;;;;;;;7.75;7.05;;;20.20;43.20;;;;;;5018824;28;43522;-67
2022/01/25 11:04:25;;;;;;;7.40;6.63;;;20.20;43.20;;;;;;5017822;28;43430;-67
2022/01/25 11:06:56;;;;;;;8.35;6.68;;;20.30;43.20;;;;;;5000682;28;43519;-67
2022/01/25 11:09:27;;;;;;;7.40;6.70;;;20.30;43.30;;;;;;5012216;28;44953;-67
2022/01/25 11:11:56;;;;;;;;;;;20.30;43.30;;;;;;5017916;28;44434;-67
2022/01/25 11:17:09;;;;;;;6.70;6.10;;;20.30;43.30;;;;;;5015876;28;43628;-66
2022/01/25 11:19:38;;;;;;;7.93;6.80;;;20.30;43.30;;;;;;5014763;28;45715;-67
2022/01/25 11:22:06;;;;;;;7.53;6.82;;;20.30;43.20;;;;;;5017800;28;44804;-67
2022/01/25 11:24:34;;;;;;;7.88;7.03;;;20.40;43.30;;;;;;5013848;28;43607;-67
2022/01/25 11:27:05;;;;;;;8.13;7.32;;;20.40;43.30;;;;;;5017003;28;43500;-66
2022/01/25 11:29:40;;;;;;;7.75;6.95;;;20.40;43.30;;;;;;5016209;28;44152;-66
2022/01/25 11:32:17;;;;;;;7.28;6.57;;;20.40;43.30;;;;;;5018395;28;43678;-66
2022/01/25 11:34:47;;;;;;;7.43;6.72;;;20.40;43.40;;;;;;4998868;28;43553;-67
2022/01/25 11:37:15;;;;;;;6.80;6.13;;;20.40;43.40;;;;;;5018427;28;43828;-66
2022/01/25 11:39:46;;;;;;;6.95;6.25;;;20.50;43.50;;;;;;5017978;28;43560;-66
2022/01/25 11:42:15;;;;;;;7.43;6.20;;;20.50;43.40;;;;;;4998392;28;44343;-66
2022/01/25 11:44:57;;;;;;;6.97;6.22;;;20.50;43.40;;;;;;5015886;28;43479;-66
2022/01/25 11:47:34;;;;;;;7.28;6.53;;;20.50;43.50;;;;;;5031920;28;44068;-67
2022/01/25 11:50:08;;;;;;;7.13;6.47;;;20.50;43.40;;;;;;5015132;28;44222;-66
2022/01/25 11:52:45;;;;;;;7.60;6.65;;;20.50;43.50;;;;;;5017614;28;43467;-65
2022/01/25 11:55:23;;;;;;;7.82;6.93;;;20.50;43.50;;;;;;5016327;28;43560;-66
2022/01/25 11:58:07;;;;;;;7.13;6.25;;;20.60;43.50;;;;;;5017917;28;43447;-65
2022/01/25 12:00:45;;;;;;;7.10;6.50;;;20.50;43.50;;;;;;5016546;28;43929;-64
2022/01/25 12:03:31;;;;;;;7.25;6.50;;;20.60;43.40;;;;;;5015278;28;43555;-66
2022/01/25 12:06:02;;;;;;;6.63;6.07;;;20.60;43.40;;;;;;5012888;28;43490;-65
2022/01/25 12:09:06;;;;;;;7.53;6.57;;;20.60;43.50;;;;;;5015555;28;43499;-66
2022/01/25 12:12:07;;;;;;;7.55;6.47;;;20.70;43.40;;;;;;5010712;28;46883;-67
2022/01/25 12:14:54;;;;;;;7.20;6.50;;;20.70;43.40;;;;;;5012936;28;43541;-66
2022/01/25 12:17:26;;;;;;;7.63;6.93;;;20.70;43.40;;;;;;5028583;28;43558;-68
2022/01/25 12:19:58;;;;;;;6.93;6.28;;;20.70;43.40;;;;;;5015775;28;43589;-68
2022/01/25 12:22:48;;;;;;;7.38;6.68;;;20.70;43.40;;;;;;5017211;28;45515;-67
2022/01/25 12:25:48;;;;;;;7.38;6.68;;;20.70;43.40;;;;;;5015244;28;43586;-66
2022/01/25 12:28:27;;;;;;;7.78;7.00;;;20.80;43.50;;;;;;5019970;28;43488;-67
2022/01/25 12:30:59;;;;;;;7.88;6.63;;;20.80;43.50;;;;;;5017148;28;44098;-67
2022/01/25 12:33:34;;;;;;;7.57;6.75;;;20.80;43.50;;;;;;5017991;28;43889;-69
2022/01/25 12:36:05;;;;;;;7.72;6.93;;;20.80;43.50;;;;;;5036402;28;43496;-67
2022/01/25 12:38:47;;;;;;;7.85;7.15;;;20.80;43.50;;;;;;5019817;28;43591;-66
2022/01/25 12:41:17;;;;;;;7.25;6.47;;;20.90;43.40;;;;;;5019674;28;43693;-66
2022/01/25 12:43:57;;;;;;;7.40;6.70;;;20.90;43.40;;;;;;5018433;28;44000;-63
2022/01/25 12:46:41;;;;;;;7.90;7.10;;;20.90;43.30;;;;;;5017308;28;45308;-67
2022/01/25 12:49:16;;;;;;;7.20;6.53;;;20.90;43.30;;;;;;5020149;28;43442;-67
2022/01/25 12:51:46;;;;;;;7.50;6.78;;;20.90;43.30;;;;;;5016427;28;43433;-67
2022/01/25 12:54:17;;;;;;;7.85;7.13;;;20.90;43.30;;;;;;5018281;28;45649;-67
2022/01/25 12:56:49;;;;;;;7.63;6.93;;;21.00;43.30;;;;;;5017466;28;43539;-67
2022/01/25 12:59:20;;;;;;;7.22;6.57;;;21.00;43.30;;;;;;5018622;28;43433;-67
2022/01/25 13:01:50;;;;;;;7.65;6.88;;;21.00;43.20;;;;;;5019211;28;43505;-67
2022/01/25 13:04:18;;;;;;;7.30;6.60;;;21.00;43.20;;;;;;5018980;28;44670;-67
2022/01/25 13:06:50;;;;;;;7.03;6.43;;;21.00;43.20;;;;;;5000937;28;45203;-67
2022/01/25 13:09:27;;;;;;;7.45;6.75;;;21.00;43.10;;;;;;5018068;28;43508;-67
2022/01/25 13:17:16;;;;;;;7.82;7.03;;;21.10;43.10;;;;;;5005043;28;43651;-68
2022/01/25 13:19:52;;;;;;;7.57;6.82;;;21.10;43.10;;;;;;5002004;28;43549;-68
2022/01/25 13:22:28;;;;;;;7.13;6.53;;;21.10;43.00;;;;;;5003289;28;43541;-67
2022/01/25 13:27:33;;;;;;;8.73;6.80;;;21.20;43.00;;;;;;5002301;28;43577;-67
2022/01/25 13:32:51;;;;;;;8.23;7.32;;;21.20;43.00;;;;;;5010852;28;43524;-67
2022/01/25 13:35:28;;;;;;;7.82;7.13;;;21.30;42.90;;;;;;5004657;28;46162;-67
2022/01/25 13:38:07;;;;;;;8.45;7.63;;;21.30;42.90;;;;;;5003758;28;43546;-67
2022/01/25 13:40:46;;;;;;;7.97;7.18;;;21.30;42.90;;;;;;5002762;28;43560;-67
2022/01/25 13:46:11;;;;;;;7.80;6.97;;;21.30;42.90;;;;;;5005037;28;45596;-67
2022/01/25 13:48:40;;;;;;;8.83;8.00;;;21.30;43.00;;;;;;5002748;28;43511;-67
2022/01/25 13:51:13;;;;;;;8.57;7.78;;;21.30;42.90;;;;;;5003793;28;43468;-67
2022/01/25 13:53:41;;;;;;;8.15;7.45;;;21.30;42.90;;;;;;5007709;28;43621;-67
2022/01/25 13:56:13;;;;;;;8.05;7.22;;;21.40;42.90;;;;;;5001502;28;45706;-68
2022/01/25 13:58:45;;;;;;;7.07;6.38;;;21.30;42.80;;;;;;5020241;28;43544;-67
2022/01/25 14:01:14;;;;;;;8.20;7.35;;;21.40;42.90;;;;;;5004862;28;43521;-68
2022/01/25 14:03:51;;;;;;;8.05;7.25;;;21.40;42.80;;;;;;5007943;28;43593;-67
2022/01/25 14:06:31;;;;;;;8.13;7.32;;;21.40;42.80;;;;;;5007578;28;45374;-68
2022/01/25 14:09:09;;;;;;;8.00;7.30;;;21.40;42.80;;;;;;5003066;28;44263;-67
2022/01/25 14:22:55;;;;;;;7.43;6.70;;;21.50;42.80;;;;;;5018330;28;43454;-66
2022/01/25 14:25:30;;;;;;;7.72;6.90;;;21.40;42.70;;;;;;5004899;28;43476;-66
2022/01/25 14:28:00;;;;;;;6.78;6.07;;;21.50;43.40;;;;;;5008633;28;44313;-65
2022/01/25 14:30:32;;;;;;;8.63;7.83;;;21.50;42.80;;;;;;5008004;28;44574;-67
2022/01/25 14:33:11;;;;;;;8.38;7.47;;;21.50;42.50;;;;;;5003805;28;43588;-66
2022/01/25 14:36:00;;;;;;;8.80;7.80;;;21.50;42.60;;;;;;5018510;28;44240;-67
2022/01/25 14:38:30;;;;;;;8.43;7.30;;;21.50;42.50;;;;;;5002374;28;44740;-66
2022/01/25 14:41:23;;;;;;;7.70;7.00;;;21.50;42.60;;;;;;5004238;28;43446;-66
2022/01/25 14:43:55;;;;;;;7.95;7.15;;;21.50;42.60;;;;;;5003698;28;43429;-66
2022/01/25 14:46:27;;;;;;;7.70;7.00;;;21.50;42.50;;;;;;5019737;28;43674;-67
2022/01/25 14:49:13;;;;;;;8.75;7.88;;;21.60;42.60;;;;;;5018390;28;43898;-66
2022/01/25 14:51:44;;;;;;;7.90;7.20;;;21.60;42.60;;;;;;5005491;28;43525;-66
2022/01/25 14:54:23;;;;;;;7.72;7.00;;;21.60;42.60;;;;;;5006735;28;44191;-66
2022/01/25 14:56:56;;;;;;;8.20;7.18;;;21.60;42.50;;;;;;4992113;28;43520;-66
2022/01/25 14:59:28;;;;;;;7.85;7.15;;;21.60;42.50;;;;;;5007734;28;43933;-66
2022/01/25 15:02:10;;;;;;;7.32;6.63;;;21.60;42.50;;;;;;5017505;28;43479;-66
2022/01/25 15:04:40;;;;;;;8.68;6.80;;;21.60;42.60;;;;;;5004621;28;43504;-66
2022/01/25 15:07:14;;;;;;;7.65;6.95;;;21.60;42.60;;;;;;5019763;28;44037;-66
2022/01/25 15:09:58;;;;;;;8.20;7.45;;;21.60;42.50;;;;;;5005750;28;44257;-65
2022/01/25 15:12:45;;;;;;;8.02;7.22;;;21.60;42.50;;;;;;5001547;28;44437;-65
2022/01/25 15:15:18;;;;;;;7.80;7.00;;;21.70;42.50;;;;;;5014429;28;43430;-65
2022/01/25 15:17:46;;;;;;;9.50;7.68;;;21.70;42.50;;;;;;5022310;28;43429;-65
2022/01/25 15:20:15;;;;;;;8.02;7.30;;;21.70;42.50;;;;;;5002075;28;45381;-65
2022/01/25 15:22:44;;;;;;;8.35;7.50;;;21.70;42.50;;;;;;5003251;28;44088;-66
2022/01/25 15:25:19;;;;;;;7.90;7.20;;;21.70;42.40;;;;;;5008518;28;43459;-65
2022/01/25 15:27:50;;;;;;;8.95;8.13;;;21.70;42.40;;;;;;5004664;28;43594;-66